createdAt,value
2023-03-23T15:58:54.789Z,2.42
2023-03-23T16:04:56.760Z,2.03
2023-03-23T16:11:00.141Z,3.40
2023-03-23T16:17:01.974Z,2.80
2023-03-23T16:23:03.864Z,2.00
2023-03-23T16:29:24.371Z,1.88
2023-03-23T16:35:31.312Z,2.05
2023-03-23T16:41:33.174Z,2.30
2023-03-23T16:47:36.107Z,1.75
2023-03-23T16:53:38.010Z,2.10
2023-03-23T16:59:39.965Z,2.58
2023-03-23T17:05:42.904Z,2.50
2023-03-23T17:11:44.862Z,2.60
2023-03-23T17:17:46.875Z,3.10
2023-03-23T17:23:48.731Z,2.58
2023-03-23T17:29:50.963Z,1.90
2023-03-23T17:35:53.913Z,1.80
2023-03-23T17:41:55.833Z,2.17
2023-03-23T17:47:57.740Z,1.85
2023-03-23T17:53:59.901Z,1.95
2023-03-23T18:00:01.962Z,2.42
2023-03-23T18:06:09.538Z,2.60
2023-03-23T18:12:14.544Z,1.98
2023-03-23T18:18:16.580Z,2.20
2023-03-23T18:24:18.461Z,2.22
2023-03-23T18:30:20.654Z,2.25
2023-03-23T18:36:26.316Z,2.45
2023-03-23T18:42:29.320Z,1.88
2023-03-23T18:48:31.612Z,1.50
2023-03-23T18:54:34.938Z,1.73
2023-03-23T19:00:37.279Z,1.27
2023-03-23T19:06:39.435Z,1.70
2023-03-23T19:12:41.608Z,1.33
2023-03-23T19:18:43.395Z,1.60
2023-03-23T19:24:45.223Z,1.38
2023-03-23T19:30:49.742Z,1.50
2023-03-23T19:36:56.207Z,1.55
2023-03-23T19:43:06.334Z,1.80
2023-03-23T19:49:08.680Z,1.70
2023-03-23T19:55:11.058Z,1.70
2023-03-23T20:01:12.972Z,1.70
2023-03-23T20:07:14.878Z,1.80
2023-03-23T20:13:16.660Z,1.52
2023-03-23T20:19:18.473Z,1.63
2023-03-23T20:25:20.733Z,1.77
2023-03-23T20:31:41.644Z,1.60
2023-03-23T20:37:44.555Z,1.58
2023-03-23T20:43:46.420Z,1.80
2023-03-23T20:49:53.377Z,1.70
2023-03-23T20:55:57.705Z,1.95
2023-03-23T21:01:59.543Z,1.77
2023-03-23T21:08:01.305Z,2.10
2023-03-23T21:14:04.551Z,1.63
2023-03-23T21:20:07.855Z,1.88
2023-03-23T21:26:10.862Z,1.67
2023-03-23T21:32:12.640Z,1.67
2023-03-23T21:38:14.893Z,1.85
2023-03-23T21:44:18.246Z,2.05
2023-03-23T21:50:22.008Z,1.95
2023-03-23T21:56:27.280Z,2.20
2023-03-23T22:02:29.161Z,2.20
2023-03-23T22:08:32.798Z,1.77
2023-03-23T22:14:35.300Z,1.83
2023-03-23T22:20:38.221Z,1.83
2023-03-23T22:26:44.098Z,2.20
2023-03-23T22:32:47.773Z,1.90
2023-03-23T22:38:51.930Z,2.20
2023-03-23T22:44:55.029Z,1.90
2023-03-23T22:50:58.763Z,1.92
2023-03-23T22:57:02.094Z,1.88
2023-03-23T23:03:06.122Z,2.15
2023-03-23T23:09:09.024Z,1.73
2023-03-23T23:15:15.259Z,1.85
2023-03-23T23:21:20.514Z,1.80
2023-03-23T23:27:23.179Z,2.17
2023-03-23T23:33:26.894Z,2.30
2023-03-23T23:39:30.721Z,2.50
2023-03-23T23:45:34.250Z,2.28
2023-03-23T23:51:37.817Z,2.05
2023-03-23T23:57:40.927Z,2.38
